createdAt,value
2018-02-02T00:01:54.884Z,83.27
2018-02-02T00:04:23.196Z,83.25
2018-02-02T00:06:52.327Z,83.38
2018-02-02T00:09:20.660Z,83.41
2018-02-02T00:11:49.791Z,83.39
2018-02-02T00:14:18.551Z,83.26
2018-02-02T00:16:47.287Z,83.20
2018-02-02T00:19:16.394Z,83.13
2018-02-02T00:21:44.724Z,83.28
2018-02-02T00:24:13.096Z,83.24
2018-02-02T00:26:41.470Z,83.29
2018-02-02T00:29:09.797Z,83.32
2018-02-02T00:31:38.142Z,83.58
2018-02-02T00:34:06.490Z,83.34
2018-02-02T00:36:35.578Z,83.23
2018-02-02T00:39:04.810Z,83.29
2018-02-02T00:41:33.163Z,83.30
2018-02-02T00:44:02.254Z,83.43
2018-02-02T00:46:30.638Z,83.40
2018-02-02T00:48:58.955Z,83.11
2018-02-02T00:51:32.883Z,82.87
2018-02-02T00:54:01.202Z,82.90
2018-02-02T00:56:29.530Z,82.99
2018-02-02T00:58:57.903Z,83.04
2018-02-02T01:01:26.262Z,83.25
2018-02-02T01:03:54.570Z,83.02
2018-02-02T01:06:22.954Z,82.91
2018-02-02T01:08:51.278Z,83.06
2018-02-02T01:11:19.631Z,83.18
2018-02-02T01:13:47.988Z,83.26
2018-02-02T01:16:16.318Z,83.33
2018-02-02T01:18:44.686Z,83.28
2018-02-02T01:21:13.010Z,83.45
2018-02-02T01:23:41.402Z,83.45
2018-02-02T01:26:09.728Z,83.69
2018-02-02T01:28:38.058Z,83.77
2018-02-02T01:31:06.415Z,83.75
2018-02-02T01:33:34.734Z,83.84
2018-02-02T01:36:04.628Z,83.79
2018-02-02T01:38:32.962Z,83.76
2018-02-02T01:41:01.282Z,83.73
2018-02-02T01:43:29.650Z,83.97
2018-02-02T01:45:58.012Z,83.95
2018-02-02T01:48:26.353Z,84.07
2018-02-02T01:50:55.485Z,84.04
2018-02-02T01:53:23.826Z,84.05
2018-02-02T01:55:52.974Z,84.08
2018-02-02T01:58:21.301Z,84.16
2018-02-02T02:00:49.641Z,84.13
2018-02-02T02:03:18.022Z,83.87
2018-02-02T02:05:46.382Z,83.91
2018-02-02T02:08:14.746Z,83.84
2018-02-02T02:10:43.074Z,83.85
2018-02-02T02:13:12.215Z,83.72
2018-02-02T02:15:40.555Z,83.64
2018-02-02T02:18:08.915Z,83.62
2018-02-02T02:20:37.300Z,83.46
2018-02-02T02:23:06.439Z,83.23
2018-02-02T02:25:34.754Z,83.09
2018-02-02T02:28:03.074Z,82.74
2018-02-02T02:30:31.454Z,82.65
2018-02-02T02:32:59.774Z,82.43
2018-02-02T02:35:28.130Z,81.86
2018-02-02T02:37:56.454Z,81.68
2018-02-02T02:40:24.905Z,81.50
2018-02-02T02:42:53.285Z,81.43
2018-02-02T02:45:21.623Z,81.29
2018-02-02T02:47:50.006Z,81.21
2018-02-02T02:50:18.370Z,81.03
2018-02-02T02:52:46.721Z,81.00
2018-02-02T02:55:15.029Z,81.05
2018-02-02T02:57:43.398Z,81.03
2018-02-02T03:00:12.501Z,80.92
2018-02-02T03:02:40.865Z,80.72
2018-02-02T03:05:09.961Z,80.78
2018-02-02T03:07:39.118Z,80.99
2018-02-02T03:10:07.445Z,81.11
2018-02-02T03:12:35.770Z,81.38
2018-02-02T03:15:04.159Z,81.36
2018-02-02T03:17:32.519Z,81.17
2018-02-02T03:20:00.889Z,80.94
2018-02-02T03:22:29.211Z,80.98
2018-02-02T03:24:58.310Z,80.63
2018-02-02T03:27:27.425Z,80.39
2018-02-02T03:29:55.754Z,80.53
2018-02-02T03:32:24.113Z,80.29
2018-02-02T03:34:52.439Z,80.09
2018-02-02T03:37:21.585Z,80.00
2018-02-02T03:39:49.926Z,80.07
2018-02-02T03:42:18.245Z,80.13
2018-02-02T03:44:46.613Z,80.41
2018-02-02T03:47:14.989Z,80.26
2018-02-02T03:49:43.489Z,80.37
2018-02-02T03:52:11.812Z,80.56
2018-02-02T03:54:40.933Z,80.40
2018-02-02T03:57:09.268Z,80.05
2018-02-02T03:59:37.625Z,80.56
2018-02-02T04:02:05.957Z,80.36
2018-02-02T04:04:34.313Z,80.54
2018-02-02T04:07:03.409Z,80.55
2018-02-02T04:09:32.505Z,80.83
2018-02-02T04:12:01.633Z,81.22
2018-02-02T04:14:29.954Z,81.39
2018-02-02T04:16:58.305Z,81.55
2018-02-02T04:19:26.630Z,81.74
2018-02-02T04:21:55.761Z,81.59
2018-02-02T04:24:24.108Z,81.45
2018-02-02T04:26:53.228Z,81.65
2018-02-02T04:29:21.537Z,81.38
2018-02-02T04:31:49.885Z,81.64
2018-02-02T04:34:18.200Z,82.03
2018-02-02T04:36:46.580Z,82.10
2018-02-02T04:39:14.918Z,82.16
2018-02-02T04:41:43.233Z,82.35
2018-02-02T04:44:11.581Z,82.32
2018-02-02T04:46:39.948Z,82.48
2018-02-02T04:49:08.277Z,82.65
2018-02-02T04:51:36.624Z,82.71
2018-02-02T04:54:04.984Z,82.86
2018-02-02T04:56:33.317Z,83.35
2018-02-02T04:59:02.452Z,83.17
2018-02-02T05:01:30.780Z,83.16
2018-02-02T05:03:59.117Z,83.05
2018-02-02T05:06:27.486Z,82.93
2018-02-02T05:08:55.812Z,83.21
2018-02-02T05:11:24.148Z,82.95
2018-02-02T05:13:52.481Z,83.17
2018-02-02T05:16:21.601Z,83.41
2018-02-02T05:18:49.936Z,83.06
2018-02-02T05:21:18.297Z,83.26
2018-02-02T05:23:46.676Z,83.39
2018-02-02T05:26:15.000Z,83.41
2018-02-02T05:28:43.420Z,83.52
2018-02-02T05:31:11.782Z,83.60
2018-02-02T05:33:40.112Z,83.70
2018-02-02T05:36:08.460Z,83.84
2018-02-02T05:38:36.832Z,83.87
2018-02-02T05:41:05.259Z,83.87
2018-02-02T05:43:34.400Z,83.88
2018-02-02T05:46:02.811Z,83.93
2018-02-02T05:48:31.584Z,84.09
2018-02-02T05:50:59.956Z,84.15
2018-02-02T05:53:28.272Z,84.21
2018-02-02T05:55:57.369Z,84.38
2018-02-02T05:58:35.512Z,84.45
2018-02-02T06:01:04.373Z,84.36
2018-02-02T06:03:33.500Z,84.37
2018-02-02T06:06:01.820Z,84.41
2018-02-02T06:08:30.180Z,84.48
2018-02-02T06:10:58.544Z,84.68
2018-02-02T06:13:26.912Z,84.68
2018-02-02T06:15:55.284Z,84.73
2018-02-02T06:18:23.624Z,84.75
2018-02-02T06:20:52.768Z,84.74
2018-02-02T06:23:21.115Z,84.79
2018-02-02T06:25:49.524Z,84.81
2018-02-02T06:28:17.855Z,84.91
2018-02-02T06:30:47.004Z,85.07
2018-02-02T06:33:16.504Z,84.90
2018-02-02T06:35:44.867Z,84.73
2018-02-02T06:38:13.986Z,84.82
2018-02-02T06:40:42.779Z,84.85
2018-02-02T06:43:11.176Z,84.82
2018-02-02T06:45:40.271Z,84.82
2018-02-02T06:48:08.855Z,84.78
2018-02-02T06:50:37.252Z,84.74
2018-02-02T06:53:06.367Z,84.76
2018-02-02T06:55:34.766Z,84.73
2018-02-02T06:58:03.156Z,84.43
2018-02-02T07:00:31.500Z,84.33
2018-02-02T07:03:00.256Z,84.28
2018-02-02T07:05:28.654Z,84.13
2018-02-02T07:07:57.767Z,83.70
2018-02-02T07:10:26.099Z,83.49
2018-02-02T07:12:55.252Z,83.08
2018-02-02T07:15:23.571Z,83.10
2018-02-02T07:17:51.939Z,83.10
2018-02-02T07:20:20.795Z,82.77
2018-02-02T07:22:49.387Z,82.65
2018-02-02T07:25:17.715Z,82.24
2018-02-02T07:27:46.071Z,82.32
2018-02-02T07:30:14.379Z,82.10
2018-02-02T07:32:42.763Z,82.06
2018-02-02T07:35:11.079Z,81.73
2018-02-02T07:37:39.423Z,81.46
2018-02-02T07:40:07.755Z,81.46
2018-02-02T07:42:36.103Z,81.31
2018-02-02T07:45:04.419Z,80.49
2018-02-02T07:47:33.171Z,80.01
2018-02-02T07:50:01.511Z,79.39
2018-02-02T07:52:29.867Z,78.77
2018-02-02T07:54:58.207Z,78.06
2018-02-02T07:57:26.592Z,77.60
2018-02-02T07:59:54.923Z,77.39
2018-02-02T08:02:24.015Z,76.96
2018-02-02T08:04:53.134Z,76.49
2018-02-02T08:07:21.459Z,75.56
2018-02-02T08:09:50.664Z,75.06
2018-02-02T08:12:19.003Z,75.10
2018-02-02T08:14:47.308Z,75.29
2018-02-02T08:17:15.664Z,75.33
2018-02-02T08:19:43.980Z,74.75
2018-02-02T08:22:12.363Z,74.66
2018-02-02T08:24:40.723Z,74.48
2018-02-02T08:27:09.070Z,74.13
2018-02-02T08:29:37.398Z,73.46
2018-02-02T08:32:05.766Z,73.08
2018-02-02T08:34:34.135Z,73.30
2018-02-02T08:37:02.463Z,73.33
2018-02-02T08:39:30.815Z,73.03
2018-02-02T08:41:59.891Z,72.75
2018-02-02T08:44:28.519Z,72.17
2018-02-02T08:46:56.854Z,71.93
2018-02-02T08:49:25.191Z,70.85
2018-02-02T08:51:53.580Z,70.50
2018-02-02T08:54:21.940Z,70.31
2018-02-02T08:56:50.246Z,70.36
2018-02-02T08:59:18.598Z,70.23
2018-02-02T09:04:51.090Z,69.80
2018-02-02T09:07:19.406Z,69.29
2018-02-02T09:09:47.746Z,69.12
2018-02-02T09:12:16.099Z,68.40
2018-02-02T09:14:44.419Z,68.02
2018-02-02T09:17:12.762Z,67.92
2018-02-02T09:19:41.082Z,67.83
2018-02-02T09:22:08.646Z,67.26
2018-02-02T09:24:37.006Z,66.93
2018-02-02T09:27:04.718Z,67.05
2018-02-02T09:29:33.805Z,66.53
2018-02-02T09:32:03.509Z,66.34
2018-02-02T09:34:32.621Z,66.28
2018-02-02T09:37:01.726Z,66.34
2018-02-02T09:39:30.087Z,66.60
2018-02-02T09:41:59.216Z,65.86
2018-02-02T09:44:28.290Z,65.14
2018-02-02T09:46:56.634Z,65.42
2018-02-02T09:49:24.942Z,65.48
2018-02-02T09:51:53.285Z,65.30
2018-02-02T09:54:21.598Z,64.94
2018-02-02T09:56:49.958Z,64.67
2018-02-02T09:59:19.419Z,64.80
2018-02-02T10:01:47.766Z,64.50
2018-02-02T10:04:16.130Z,64.29
2018-02-02T10:06:44.446Z,64.25
2018-02-02T10:09:12.798Z,63.76
2018-02-02T10:11:41.110Z,63.64
2018-02-02T10:14:09.445Z,63.34
2018-02-02T10:16:37.763Z,62.69
2018-02-02T10:19:06.126Z,62.79
2018-02-02T10:21:34.439Z,62.26
2018-02-02T10:24:02.824Z,62.43
2018-02-02T10:26:31.493Z,61.67
2018-02-02T10:28:59.845Z,62.11
2018-02-02T10:31:28.208Z,61.08
2018-02-02T10:33:56.517Z,60.59
2018-02-02T10:36:24.923Z,60.48
2018-02-02T10:38:53.278Z,60.72
2018-02-02T10:41:21.618Z,60.03
2018-02-02T10:43:49.934Z,59.40
2018-02-02T10:46:18.297Z,59.34
2018-02-02T10:48:46.610Z,59.50
2018-02-02T10:51:15.761Z,58.99
2018-02-02T10:53:44.143Z,59.23
2018-02-02T10:56:12.501Z,59.16
2018-02-02T10:58:40.809Z,58.89
2018-02-02T11:01:14.713Z,58.37
2018-02-02T11:03:44.807Z,58.70
2018-02-02T11:06:13.159Z,59.02
2018-02-02T11:08:42.254Z,58.06
2018-02-02T11:11:10.609Z,58.18
2018-02-02T11:13:38.961Z,57.73
2018-02-02T11:16:07.309Z,57.39
2018-02-02T11:18:45.397Z,57.47
2018-02-02T11:21:13.741Z,57.32
2018-02-02T11:23:43.573Z,56.95
2018-02-02T11:26:12.693Z,57.06
2018-02-02T11:28:41.049Z,56.99
2018-02-02T11:31:10.147Z,56.65
2018-02-02T11:33:39.290Z,56.71
2018-02-02T11:36:07.615Z,56.15
2018-02-02T11:38:36.749Z,55.90
2018-02-02T11:41:05.065Z,55.53
2018-02-02T11:43:33.429Z,55.38
2018-02-02T11:46:01.810Z,56.17
2018-02-02T11:48:30.197Z,55.14
2018-02-02T11:50:58.549Z,55.04
2018-02-02T11:53:26.886Z,55.13
2018-02-02T11:55:56.017Z,54.66
2018-02-02T11:58:24.340Z,55.14
2018-02-02T12:00:52.668Z,54.99
2018-02-02T12:03:21.033Z,54.93
2018-02-02T12:05:49.385Z,54.54
2018-02-02T12:08:18.533Z,53.95
2018-02-02T12:10:46.873Z,54.28
2018-02-02T12:13:15.257Z,54.56
2018-02-02T12:15:43.588Z,54.04
2018-02-02T12:18:11.942Z,53.72
2018-02-02T12:20:40.270Z,53.84
2018-02-02T12:23:10.726Z,54.33
2018-02-02T12:25:44.478Z,53.89
2018-02-02T12:28:26.608Z,53.42
2018-02-02T12:31:01.133Z,51.72
2018-02-02T12:33:43.916Z,50.42
2018-02-02T12:36:22.721Z,49.68
2018-02-02T12:39:01.589Z,48.45
2018-02-02T12:41:37.850Z,47.87
2018-02-02T12:44:15.624Z,47.70
2018-02-02T12:46:52.264Z,48.36
2018-02-02T12:49:39.600Z,48.34
2018-02-02T12:52:12.244Z,48.06
2018-02-02T12:54:46.769Z,48.47
2018-02-02T12:57:21.112Z,48.10
2018-02-02T12:59:59.033Z,48.33
2018-02-02T13:02:32.613Z,47.79
2018-02-02T13:05:03.041Z,47.03
2018-02-02T13:07:32.312Z,47.21
2018-02-02T13:10:00.668Z,47.70
2018-02-02T13:12:29.753Z,47.61
2018-02-02T13:14:58.877Z,47.82
2018-02-02T13:17:27.184Z,48.25
2018-02-02T13:19:55.936Z,48.30
2018-02-02T13:22:24.320Z,48.29
2018-02-02T13:24:52.636Z,48.24
2018-02-02T13:27:20.964Z,48.42
2018-02-02T13:29:49.297Z,48.30
2018-02-02T13:32:17.642Z,48.30
2018-02-02T13:34:45.996Z,47.15
2018-02-02T13:37:14.320Z,47.88
2018-02-02T13:39:43.154Z,48.88
2018-02-02T13:42:12.276Z,49.30
2018-02-02T13:44:40.580Z,49.25
2018-02-02T13:47:08.904Z,48.85
2018-02-02T13:49:38.025Z,48.21
2018-02-02T13:52:06.340Z,48.64
2018-02-02T13:54:34.692Z,48.92
2018-02-02T13:57:03.033Z,48.87
2018-02-02T13:59:31.359Z,48.89
2018-02-02T14:01:59.712Z,48.70
2018-02-02T14:04:28.812Z,48.94
2018-02-02T14:06:57.173Z,49.73
2018-02-02T14:09:25.490Z,49.51
2018-02-02T14:11:53.849Z,49.90
2018-02-02T14:14:22.187Z,49.57
2018-02-02T14:16:51.284Z,49.95
2018-02-02T14:19:20.393Z,50.43
2018-02-02T14:21:48.733Z,50.48
2018-02-02T14:24:17.052Z,50.68
2018-02-02T14:26:45.412Z,50.87
2018-02-02T14:29:14.504Z,51.27
2018-02-02T14:31:43.635Z,51.21
2018-02-02T14:34:11.984Z,51.00
2018-02-02T14:36:41.117Z,51.32
2018-02-02T14:39:10.213Z,51.48
2018-02-02T14:41:38.607Z,51.76
2018-02-02T14:44:06.968Z,51.39
2018-02-02T14:46:35.393Z,51.60
2018-02-02T14:49:04.519Z,51.97
2018-02-02T14:51:32.851Z,52.11
2018-02-02T14:54:01.207Z,52.19
2018-02-02T14:56:29.568Z,52.10
2018-02-02T14:58:59.026Z,52.76
2018-02-02T15:01:28.219Z,52.77
2018-02-02T15:03:56.572Z,52.88
2018-02-02T15:06:24.940Z,52.98
2018-02-02T15:08:53.269Z,53.15
2018-02-02T15:11:21.669Z,53.47
2018-02-02T15:13:50.192Z,54.03
2018-02-02T15:16:18.532Z,54.45
2018-02-02T15:18:46.886Z,54.73
2018-02-02T15:21:16.053Z,55.01
2018-02-02T15:23:44.380Z,55.47
2018-02-02T15:26:12.752Z,56.05
2018-02-02T15:28:41.067Z,56.01
2018-02-02T15:31:09.404Z,56.49
2018-02-02T15:33:37.775Z,56.34
2018-02-02T15:36:06.099Z,56.32
2018-02-02T15:38:34.451Z,57.02
2018-02-02T15:41:02.823Z,57.22
2018-02-02T15:43:31.147Z,57.64
2018-02-02T15:45:59.533Z,57.90
2018-02-02T15:48:27.863Z,58.20
2018-02-02T15:50:56.172Z,58.47
2018-02-02T15:53:24.537Z,58.90
2018-02-02T15:55:52.898Z,59.40
2018-02-02T15:58:21.255Z,59.87
2018-02-02T16:00:49.626Z,60.13
2018-02-02T16:03:19.356Z,60.74
2018-02-02T16:05:47.723Z,60.63
2018-02-02T16:08:16.087Z,61.01
2018-02-02T16:10:46.117Z,61.34
2018-02-02T16:13:14.440Z,61.47
2018-02-02T16:15:42.859Z,61.87
2018-02-02T16:18:13.277Z,61.68
2018-02-02T16:20:42.995Z,61.91
2018-02-02T16:23:12.100Z,62.30
2018-02-02T16:25:40.498Z,62.75
2018-02-02T16:28:08.848Z,63.00
2018-02-02T16:30:37.175Z,63.09
2018-02-02T16:33:05.543Z,63.36
2018-02-02T16:35:33.879Z,63.63
2018-02-02T16:38:03.011Z,64.03
2018-02-02T16:40:31.332Z,63.78
2018-02-02T16:42:59.679Z,63.58
2018-02-02T16:45:28.054Z,63.66
2018-02-02T16:47:56.370Z,63.84
2018-02-02T16:50:25.466Z,63.79
2018-02-02T16:52:55.186Z,63.88
2018-02-02T16:55:24.304Z,63.85
2018-02-02T16:57:52.658Z,63.98
2018-02-02T17:00:22.635Z,64.22
2018-02-02T17:02:51.039Z,64.21
2018-02-02T17:05:20.189Z,64.34
2018-02-02T17:07:48.659Z,64.59
2018-02-02T17:10:16.986Z,64.59
2018-02-02T17:12:45.346Z,64.68
2018-02-02T17:15:13.736Z,64.68
2018-02-02T17:17:42.110Z,64.66
2018-02-02T17:20:10.447Z,64.77
2018-02-02T17:22:38.882Z,64.72
2018-02-02T17:25:08.628Z,64.82
2018-02-02T17:27:36.958Z,64.91
2018-02-02T17:30:05.296Z,64.88
2018-02-02T17:32:33.645Z,65.05
2018-02-02T17:35:02.770Z,65.00
2018-02-02T17:37:31.090Z,65.07
2018-02-02T17:39:59.521Z,65.00
2018-02-02T17:42:27.849Z,65.09
2018-02-02T17:44:56.167Z,64.93
2018-02-02T17:47:24.516Z,64.92
2018-02-02T17:49:54.402Z,64.91
2018-02-02T17:52:22.762Z,64.92
2018-02-02T17:54:51.128Z,65.01
2018-02-02T17:57:19.596Z,65.31
2018-02-02T17:59:47.942Z,65.16
2018-02-02T18:02:20.504Z,65.12
2018-02-02T18:04:48.866Z,65.38
2018-02-02T18:07:17.622Z,65.40
2018-02-02T18:09:45.955Z,65.39
2018-02-02T18:12:22.110Z,65.64
2018-02-02T18:14:50.507Z,65.58
2018-02-02T18:17:19.642Z,65.47
2018-02-02T18:19:47.967Z,65.56
2018-02-02T18:22:18.054Z,65.90
2018-02-02T18:24:48.094Z,65.82
2018-02-02T18:27:17.855Z,65.94
2018-02-02T18:29:46.188Z,66.10
2018-02-02T18:32:15.327Z,66.20
2018-02-02T18:34:44.426Z,66.17
2018-02-02T18:37:12.978Z,66.43
2018-02-02T18:39:42.123Z,66.53
2018-02-02T18:42:10.532Z,66.83
2018-02-02T18:44:38.942Z,66.90
2018-02-02T18:47:07.295Z,66.76
2018-02-02T18:49:36.417Z,66.78
2018-02-02T18:52:04.746Z,66.83
2018-02-02T18:54:33.122Z,66.86
2018-02-02T18:57:01.467Z,66.81
2018-02-02T18:59:29.820Z,66.91
2018-02-02T19:01:58.181Z,67.01
2018-02-02T19:04:27.258Z,66.94
2018-02-02T19:06:55.637Z,66.79
2018-02-02T19:09:24.778Z,66.83
2018-02-02T19:11:54.489Z,66.72
2018-02-02T19:14:23.429Z,66.74
2018-02-02T19:16:51.795Z,66.57
2018-02-02T19:19:20.172Z,66.35
2018-02-02T19:21:48.565Z,66.38
2018-02-02T19:24:17.998Z,66.15
2018-02-02T19:26:47.870Z,66.02
2018-02-02T19:29:16.261Z,66.00
2018-02-02T19:31:44.627Z,66.02
2018-02-02T19:34:13.183Z,65.90
2018-02-02T19:36:42.277Z,65.84
2018-02-02T19:39:11.650Z,65.77
2018-02-02T19:41:43.504Z,65.98
2018-02-02T19:44:12.617Z,66.14
2018-02-02T19:46:40.961Z,66.36
2018-02-02T19:49:09.341Z,66.40
2018-02-02T19:51:37.849Z,66.51
2018-02-02T19:54:07.149Z,66.60
2018-02-02T19:56:35.526Z,67.06
2018-02-02T19:59:04.826Z,67.04
2018-02-02T20:01:33.137Z,67.13
2018-02-02T20:04:01.470Z,66.78
2018-02-02T20:06:30.724Z,66.98
2018-02-02T20:09:00.734Z,67.29
2018-02-02T20:11:29.850Z,67.27
2018-02-02T20:13:59.865Z,67.12
2018-02-02T20:16:29.881Z,66.93
2018-02-02T20:18:59.110Z,66.89
2018-02-02T20:21:30.205Z,67.05
2018-02-02T20:23:58.897Z,66.99
2018-02-02T20:26:27.265Z,66.75
2018-02-02T20:28:56.484Z,67.02
2018-02-02T20:31:25.428Z,66.96
2018-02-02T20:33:53.773Z,67.32
2018-02-02T20:36:23.826Z,67.65
2018-02-02T20:38:52.968Z,67.79
2018-02-02T20:41:22.146Z,67.74
2018-02-02T20:43:51.244Z,68.09
2018-02-02T20:46:20.014Z,68.43
2018-02-02T20:48:49.649Z,68.86
2018-02-02T20:51:18.033Z,69.35
2018-02-02T20:53:46.654Z,69.66
2018-02-02T20:56:14.993Z,69.68
2018-02-02T20:58:43.340Z,69.83
2018-02-02T21:01:11.704Z,70.02
2018-02-02T21:03:40.070Z,69.74
2018-02-02T21:06:08.777Z,69.36
2018-02-02T21:08:37.128Z,69.09
2018-02-02T21:11:06.235Z,69.10
2018-02-02T21:13:38.118Z,68.91
2018-02-02T21:16:07.054Z,68.85
2018-02-02T21:18:35.380Z,68.53
2018-02-02T21:21:03.735Z,68.47
2018-02-02T21:23:32.164Z,68.14
2018-02-02T21:26:00.588Z,67.87
2018-02-02T21:28:29.200Z,67.85
2018-02-02T21:30:58.290Z,67.76
2018-02-02T21:33:26.617Z,67.80
2018-02-02T21:35:55.046Z,67.70
2018-02-02T21:38:23.366Z,67.84
2018-02-02T21:40:52.492Z,67.60
2018-02-02T21:43:21.572Z,67.44
2018-02-02T21:45:49.936Z,67.38
2018-02-02T21:48:18.502Z,67.28
2018-02-02T21:50:46.868Z,67.19
2018-02-02T21:53:15.294Z,67.16
2018-02-02T21:55:44.945Z,67.10
2018-02-02T21:58:13.691Z,66.92
2018-02-02T22:00:42.989Z,66.89
2018-02-02T22:03:12.115Z,66.45
2018-02-02T22:05:41.029Z,66.67
2018-02-02T22:08:09.373Z,66.60
2018-02-02T22:10:38.468Z,66.63
2018-02-02T22:13:06.793Z,66.68
2018-02-02T22:15:35.658Z,66.44
2018-02-02T22:18:04.072Z,66.52
2018-02-02T22:20:32.417Z,66.78
2018-02-02T22:23:01.422Z,66.79
2018-02-02T22:25:30.529Z,66.95
2018-02-02T22:27:58.904Z,66.76
2018-02-02T22:30:27.804Z,66.85
2018-02-02T22:32:57.064Z,66.95
2018-02-02T22:35:25.392Z,67.00
2018-02-02T22:37:53.760Z,67.24
2018-02-02T22:40:22.892Z,67.10
2018-02-02T22:42:52.761Z,67.16
2018-02-02T22:45:21.140Z,67.32
2018-02-02T22:47:49.471Z,67.76
2018-02-02T22:50:17.836Z,67.09
2018-02-02T22:52:46.920Z,67.46
2018-02-02T22:55:16.036Z,67.46
2018-02-02T22:57:44.391Z,67.35
2018-02-02T23:00:14.601Z,67.39
2018-02-02T23:02:42.966Z,67.49
2018-02-02T23:05:11.335Z,67.48
2018-02-02T23:07:39.665Z,67.47
2018-02-02T23:10:08.038Z,67.51
2018-02-02T23:12:36.365Z,67.43
2018-02-02T23:15:04.755Z,67.51
2018-02-02T23:17:33.071Z,67.71
2018-02-02T23:20:02.156Z,67.53
2018-02-02T23:22:31.323Z,67.66
2018-02-02T23:24:59.643Z,67.68
2018-02-02T23:27:28.051Z,67.75
2018-02-02T23:29:56.368Z,67.64
2018-02-02T23:32:25.122Z,67.95
2018-02-02T23:34:53.475Z,68.25
2018-02-02T23:37:21.803Z,68.21
2018-02-02T23:39:50.179Z,68.07
2018-02-02T23:42:18.508Z,68.30
2018-02-02T23:44:47.253Z,68.31
2018-02-02T23:47:15.571Z,68.16
2018-02-02T23:49:44.440Z,68.49
2018-02-02T23:52:13.211Z,68.63
2018-02-02T23:54:41.556Z,68.54
2018-02-02T23:57:10.699Z,68.26
2018-02-02T23:59:39.815Z,68.62
